createdAt,value
2018-05-24T00:02:01.699Z,69.40
2018-05-24T00:04:29.930Z,69.50
2018-05-24T00:06:58.176Z,70.20
2018-05-24T00:09:26.813Z,68.70
2018-05-24T00:11:55.485Z,69.50
2018-05-24T00:14:23.687Z,70.60
2018-05-24T00:16:51.932Z,70.50
2018-05-24T00:19:20.159Z,70.70
2018-05-24T00:21:48.415Z,70.10
2018-05-24T00:24:16.659Z,70.50
2018-05-24T00:26:44.898Z,70.20
2018-05-24T00:29:13.132Z,70.70
2018-05-24T00:31:41.383Z,70.40
2018-05-24T00:34:09.614Z,70.30
2018-05-24T00:36:37.842Z,70.70
2018-05-24T00:39:06.839Z,70.50
2018-05-24T00:41:35.853Z,70.30
2018-05-24T00:44:04.078Z,70.40
2018-05-24T00:46:32.335Z,70.30
2018-05-24T00:49:00.579Z,71.50
2018-05-24T00:51:28.819Z,70.30
2018-05-24T00:53:57.815Z,71.40
2018-05-24T00:56:26.830Z,71.30
2018-05-24T00:58:55.077Z,71.20
2018-05-24T01:01:24.076Z,71.60
2018-05-24T01:03:52.299Z,71.60
2018-05-24T01:06:20.569Z,71.50
2018-05-24T01:08:48.774Z,72.30
2018-05-24T01:11:17.351Z,71.80
2018-05-24T01:13:45.559Z,71.80
2018-05-24T01:16:13.793Z,72.10
2018-05-24T01:18:42.043Z,72.70
2018-05-24T01:21:10.272Z,72.90
2018-05-24T01:23:38.523Z,73.00
2018-05-24T01:26:06.755Z,74.00
2018-05-24T01:28:34.996Z,73.60
2018-05-24T01:31:03.224Z,73.50
2018-05-24T01:33:31.464Z,74.40
2018-05-24T01:36:00.199Z,74.70
2018-05-24T01:38:28.418Z,75.20
2018-05-24T01:40:56.647Z,75.00
2018-05-24T01:43:24.886Z,74.90
2018-05-24T01:45:53.115Z,75.70
2018-05-24T01:48:22.138Z,78.20
2018-05-24T01:50:50.367Z,78.10
2018-05-24T01:53:18.598Z,78.80
2018-05-24T01:55:46.833Z,78.30
2018-05-24T01:58:15.886Z,78.10
2018-05-24T02:00:44.115Z,78.00
2018-05-24T02:03:12.362Z,78.30
2018-05-24T02:05:41.359Z,78.40
2018-05-24T02:08:10.364Z,78.10
2018-05-24T02:10:39.013Z,78.00
2018-05-24T02:13:07.231Z,77.80
2018-05-24T02:15:35.453Z,77.20
2018-05-24T02:18:03.688Z,77.50
2018-05-24T02:20:31.914Z,77.40
2018-05-24T02:23:00.155Z,77.00
2018-05-24T02:25:28.379Z,77.30
2018-05-24T02:27:57.385Z,77.30
2018-05-24T02:30:25.620Z,77.30
2018-05-24T02:32:53.850Z,78.00
2018-05-24T02:35:22.079Z,78.40
2018-05-24T02:37:51.088Z,79.70
2018-05-24T02:40:19.311Z,78.80
2018-05-24T02:42:47.551Z,79.30
2018-05-24T02:45:15.791Z,79.50
2018-05-24T02:47:44.011Z,79.90
2018-05-24T02:50:12.247Z,80.40
2018-05-24T02:52:41.246Z,81.60
2018-05-24T02:55:09.491Z,81.60
2018-05-24T02:57:37.721Z,81.80
2018-05-24T03:00:05.962Z,81.90
2018-05-24T03:02:34.959Z,81.50
2018-05-24T03:05:03.631Z,81.40
2018-05-24T03:07:31.846Z,81.50
2018-05-24T03:10:00.091Z,81.90
2018-05-24T03:12:29.088Z,81.70
2018-05-24T03:14:57.327Z,81.70
2018-05-24T03:17:25.561Z,81.70
2018-05-24T03:19:53.808Z,81.80
2018-05-24T03:22:22.789Z,81.60
2018-05-24T03:24:51.798Z,81.40
2018-05-24T03:27:20.026Z,82.20
2018-05-24T03:29:48.274Z,81.50
2018-05-24T03:32:16.505Z,81.30
2018-05-24T03:34:45.520Z,81.20
2018-05-24T03:37:13.752Z,81.80
2018-05-24T03:39:41.995Z,81.00
2018-05-24T03:42:10.220Z,81.00
2018-05-24T03:44:39.223Z,81.90
2018-05-24T03:47:07.452Z,81.80
2018-05-24T03:49:35.690Z,81.10
2018-05-24T03:52:04.033Z,81.10
2018-05-24T03:54:32.218Z,81.50
2018-05-24T03:57:00.451Z,81.10
2018-05-24T04:02:52.078Z,81.10
2018-05-24T04:05:20.323Z,81.30
2018-05-24T04:07:48.550Z,81.30
2018-05-24T04:10:17.567Z,81.30
2018-05-24T04:12:45.792Z,81.30
2018-05-24T04:15:14.117Z,81.30
2018-05-24T04:17:42.268Z,81.70
2018-05-24T04:20:10.488Z,81.30
2018-05-24T04:22:38.738Z,81.40
2018-05-24T04:25:07.187Z,82.00
2018-05-24T04:27:35.427Z,81.60
2018-05-24T04:30:03.651Z,82.20
2018-05-24T04:32:32.660Z,81.70
2018-05-24T04:35:00.894Z,81.60
2018-05-24T04:37:29.138Z,81.80
2018-05-24T04:39:57.362Z,82.10
2018-05-24T04:42:26.383Z,82.30
2018-05-24T04:44:54.616Z,82.30
2018-05-24T04:47:22.848Z,82.70
2018-05-24T04:49:51.078Z,82.10
2018-05-24T04:52:19.331Z,82.00
2018-05-24T04:54:47.558Z,81.50
2018-05-24T04:57:15.794Z,82.10
2018-05-24T04:59:44.790Z,81.50
2018-05-24T05:02:13.798Z,82.40
2018-05-24T05:04:42.039Z,82.40
2018-05-24T05:07:11.051Z,83.10
2018-05-24T05:09:39.274Z,82.30
2018-05-24T05:12:07.523Z,82.40
2018-05-24T05:14:35.807Z,82.20
2018-05-24T05:17:04.005Z,81.90
2018-05-24T05:19:32.311Z,81.30
2018-05-24T05:22:00.874Z,82.00
2018-05-24T05:24:29.089Z,81.10
2018-05-24T05:26:57.312Z,82.10
2018-05-24T05:29:25.584Z,81.80
2018-05-24T05:31:53.778Z,82.60
2018-05-24T05:34:22.787Z,82.00
2018-05-24T05:36:51.016Z,82.00
2018-05-24T05:39:19.260Z,82.00
2018-05-24T05:41:47.487Z,81.90
2018-05-24T05:44:15.731Z,82.10
2018-05-24T05:46:44.741Z,81.60
2018-05-24T05:49:12.983Z,81.60
2018-05-24T05:51:41.206Z,81.30
2018-05-24T05:54:10.219Z,81.40
2018-05-24T05:56:38.443Z,81.40
2018-05-24T05:59:06.694Z,82.20
2018-05-24T06:01:34.988Z,81.90
2018-05-24T06:04:03.933Z,82.30
2018-05-24T06:06:32.159Z,82.30
2018-05-24T06:09:00.402Z,81.10
2018-05-24T06:11:28.639Z,81.30
2018-05-24T06:13:57.710Z,81.10
2018-05-24T06:16:25.923Z,81.10
2018-05-24T06:18:54.131Z,80.20
2018-05-24T06:21:22.362Z,80.90
2018-05-24T06:23:51.355Z,80.40
2018-05-24T06:26:19.596Z,80.40
2018-05-24T06:28:47.834Z,81.70
2018-05-24T06:31:16.071Z,81.20
2018-05-24T06:33:44.313Z,80.30
2018-05-24T06:36:12.560Z,80.80
2018-05-24T06:38:40.787Z,79.70
2018-05-24T06:41:09.802Z,79.70
2018-05-24T06:43:38.035Z,78.90
2018-05-24T06:46:06.279Z,79.60
2018-05-24T06:48:34.502Z,79.70
2018-05-24T06:51:02.759Z,80.10
2018-05-24T06:53:30.991Z,79.40
2018-05-24T06:55:59.236Z,79.60
2018-05-24T06:58:27.459Z,77.70
2018-05-24T07:00:55.707Z,78.30
2018-05-24T07:03:23.933Z,77.20
2018-05-24T07:05:52.996Z,77.00
2018-05-24T07:08:21.939Z,77.10
2018-05-24T07:10:50.187Z,76.30
2018-05-24T07:13:18.427Z,76.20
2018-05-24T07:15:46.672Z,76.30
2018-05-24T07:18:14.900Z,74.60
2018-05-24T07:20:43.138Z,75.50
2018-05-24T07:23:11.367Z,73.90
2018-05-24T07:25:40.379Z,72.70
2018-05-24T07:28:08.611Z,72.70
2018-05-24T07:30:36.854Z,74.00
2018-05-24T07:33:05.104Z,73.80
2018-05-24T07:35:33.327Z,73.50
2018-05-24T07:38:01.580Z,71.50
2018-05-24T07:40:29.806Z,70.20
2018-05-24T07:42:58.053Z,69.10
2018-05-24T07:45:26.277Z,68.20
2018-05-24T07:47:54.517Z,67.80
2018-05-24T07:50:23.515Z,66.90
2018-05-24T07:52:52.529Z,66.20
2018-05-24T07:55:20.767Z,66.20
2018-05-24T07:57:49.350Z,66.80
2018-05-24T08:00:17.574Z,68.40
2018-05-24T08:02:45.819Z,70.60
2018-05-24T08:05:14.051Z,70.20
2018-05-24T08:07:42.299Z,70.10
2018-05-24T08:10:11.020Z,69.80
2018-05-24T08:12:39.240Z,70.40
2018-05-24T08:15:07.481Z,73.60
2018-05-24T08:17:36.500Z,72.60
2018-05-24T08:20:04.729Z,72.40
2018-05-24T08:22:33.051Z,73.90
2018-05-24T08:25:01.600Z,75.00
2018-05-24T08:27:29.831Z,75.40
2018-05-24T08:29:58.063Z,74.00
2018-05-24T08:32:27.079Z,75.40
2018-05-24T08:34:55.315Z,75.40
2018-05-24T08:37:24.318Z,72.20
2018-05-24T08:39:53.315Z,72.90
2018-05-24T08:42:21.565Z,73.00
2018-05-24T08:44:49.794Z,73.40
2018-05-24T08:47:18.107Z,73.20
2018-05-24T08:49:46.259Z,74.00
2018-05-24T08:52:14.496Z,74.30
2018-05-24T08:54:42.739Z,72.50
2018-05-24T08:57:10.981Z,75.20
2018-05-24T08:59:39.210Z,74.50
2018-05-24T09:02:07.460Z,73.60
2018-05-24T09:04:36.468Z,73.70
2018-05-24T09:07:04.702Z,72.90
2018-05-24T09:09:32.955Z,72.70
2018-05-24T09:12:01.190Z,74.20
2018-05-24T09:14:30.575Z,71.40
2018-05-24T09:16:58.794Z,71.40
2018-05-24T09:19:27.039Z,71.70
2018-05-24T09:21:55.361Z,71.70
2018-05-24T09:24:23.514Z,71.20
2018-05-24T09:26:51.743Z,71.30
2018-05-24T09:29:20.797Z,72.30
2018-05-24T09:31:48.985Z,72.20
2018-05-24T09:34:17.219Z,72.20
2018-05-24T09:36:45.447Z,71.80
2018-05-24T09:39:13.685Z,71.20
2018-05-24T09:41:42.209Z,71.70
2018-05-24T09:44:10.454Z,72.60
2018-05-24T09:46:38.675Z,72.10
2018-05-24T09:49:06.917Z,72.10
2018-05-24T09:51:35.142Z,71.20
2018-05-24T09:54:03.395Z,71.30
2018-05-24T09:56:32.398Z,69.30
2018-05-24T09:59:00.653Z,69.30
2018-05-24T10:01:29.643Z,70.20
2018-05-24T10:03:58.646Z,68.90
2018-05-24T10:06:26.876Z,68.90
2018-05-24T10:08:55.124Z,70.30
2018-05-24T10:11:23.353Z,72.00
2018-05-24T10:13:52.350Z,64.40
2018-05-24T10:16:21.468Z,61.20
2018-05-24T10:18:49.598Z,61.20
2018-05-24T10:21:17.831Z,63.10
2018-05-24T10:23:46.080Z,63.00
2018-05-24T10:26:14.308Z,62.60
2018-05-24T10:28:42.547Z,61.00
2018-05-24T10:31:10.783Z,63.10
2018-05-24T10:33:39.784Z,62.90
2018-05-24T10:36:08.017Z,62.90
2018-05-24T10:38:36.251Z,64.20
2018-05-24T10:41:04.900Z,63.60
2018-05-24T10:43:33.129Z,63.00
2018-05-24T10:46:01.359Z,64.70
2018-05-24T10:48:29.611Z,63.40
2018-05-24T10:50:57.843Z,64.90
2018-05-24T10:53:26.060Z,62.90
2018-05-24T10:55:55.163Z,63.70
2018-05-24T10:58:23.300Z,64.30
2018-05-24T11:00:51.534Z,63.60
2018-05-24T11:03:19.785Z,64.70
2018-05-24T11:05:48.779Z,66.80
2018-05-24T11:08:17.766Z,68.10
2018-05-24T11:10:46.790Z,68.90
2018-05-24T11:13:15.020Z,68.00
2018-05-24T11:15:43.267Z,68.60
2018-05-24T11:18:11.494Z,68.60
2018-05-24T11:20:39.743Z,68.40
2018-05-24T11:23:07.971Z,68.70
2018-05-24T11:25:36.206Z,71.30
2018-05-24T11:28:04.435Z,69.70
2018-05-24T11:30:32.687Z,68.00
2018-05-24T11:33:00.923Z,68.70
2018-05-24T11:35:29.922Z,65.50
2018-05-24T11:37:58.146Z,65.40
2018-05-24T11:40:26.386Z,66.10
2018-05-24T11:42:54.609Z,66.30
2018-05-24T11:45:22.852Z,66.70
2018-05-24T11:47:51.370Z,65.40
2018-05-24T11:50:19.587Z,68.40
2018-05-24T11:52:47.837Z,67.20
2018-05-24T11:55:16.055Z,66.80
2018-05-24T11:57:44.288Z,66.70
2018-05-24T12:00:13.307Z,66.40
2018-05-24T12:02:41.866Z,66.40
2018-05-24T12:05:10.111Z,68.10
2018-05-24T12:07:38.342Z,68.60
2018-05-24T12:10:06.588Z,68.10
2018-05-24T12:12:34.814Z,68.60
2018-05-24T12:15:03.144Z,69.80
2018-05-24T12:17:31.283Z,69.70
2018-05-24T12:19:59.530Z,70.60
2018-05-24T12:22:27.761Z,70.40
2018-05-24T12:24:56.018Z,71.80
2018-05-24T12:27:25.007Z,71.70
2018-05-24T12:29:54.016Z,73.50
2018-05-24T12:32:22.565Z,73.50
2018-05-24T12:34:50.786Z,72.50
2018-05-24T12:37:20.747Z,72.60
2018-05-24T12:39:48.926Z,72.50
2018-05-24T12:42:17.151Z,73.20
2018-05-24T12:44:45.398Z,74.50
2018-05-24T12:47:13.618Z,71.40
2018-05-24T12:49:41.843Z,73.70
2018-05-24T12:52:10.859Z,73.30
2018-05-24T12:54:39.085Z,73.30
2018-05-24T12:57:07.331Z,72.80
2018-05-24T12:59:35.859Z,71.00
2018-05-24T13:02:04.854Z,72.90
2018-05-24T13:04:33.899Z,74.70
2018-05-24T13:07:02.099Z,74.60
2018-05-24T13:09:30.676Z,76.50
2018-05-24T13:11:58.890Z,75.50
2018-05-24T13:14:27.121Z,74.00
2018-05-24T13:16:55.396Z,75.40
2018-05-24T13:19:23.594Z,76.30
2018-05-24T13:21:52.621Z,77.70
2018-05-24T13:24:20.845Z,77.80
2018-05-24T13:26:49.208Z,80.40
2018-05-24T13:29:17.517Z,80.40
2018-05-24T13:31:45.718Z,80.90
2018-05-24T13:34:14.174Z,83.10
2018-05-24T13:36:43.159Z,85.00
2018-05-24T13:39:12.156Z,82.50
2018-05-24T13:41:40.398Z,82.40
2018-05-24T13:44:08.627Z,81.50
2018-05-24T13:46:37.258Z,80.20
2018-05-24T13:49:05.851Z,83.30
2018-05-24T13:51:34.081Z,83.30
2018-05-24T13:54:02.311Z,83.60
2018-05-24T13:56:30.556Z,80.50
2018-05-24T13:58:58.818Z,83.50
2018-05-24T14:01:27.074Z,80.60
2018-05-24T14:03:55.291Z,80.70
2018-05-24T14:06:24.300Z,80.10
2018-05-24T14:08:53.296Z,81.80
2018-05-24T14:11:21.541Z,81.80
2018-05-24T14:13:50.553Z,80.00
2018-05-24T14:16:19.562Z,82.40
2018-05-24T14:18:47.791Z,82.40
2018-05-24T14:21:16.035Z,82.00
2018-05-24T14:23:44.275Z,81.40
2018-05-24T14:26:12.558Z,81.10
2018-05-24T14:28:40.746Z,81.40
2018-05-24T14:31:08.990Z,79.70
2018-05-24T14:33:37.213Z,81.40
2018-05-24T14:36:05.457Z,82.60
2018-05-24T14:38:33.685Z,80.40
2018-05-24T14:41:01.938Z,81.10
2018-05-24T14:43:30.538Z,81.00
2018-05-24T14:45:58.738Z,80.40
2018-05-24T14:48:27.751Z,75.90
2018-05-24T14:50:55.982Z,75.90
2018-05-24T14:53:24.218Z,75.80
2018-05-24T14:55:52.983Z,75.30
2018-05-24T14:58:21.191Z,72.40
2018-05-24T15:00:49.407Z,73.20
2018-05-24T15:03:18.413Z,75.40
2018-05-24T15:05:46.643Z,75.40
2018-05-24T15:08:14.890Z,76.30
2018-05-24T15:10:43.138Z,76.50
2018-05-24T15:13:23.440Z,78.50
2018-05-24T15:15:51.688Z,77.00
2018-05-24T15:18:19.935Z,75.50
2018-05-24T15:20:48.159Z,76.60
2018-05-24T15:23:16.416Z,76.70
2018-05-24T15:25:44.643Z,78.90
2018-05-24T15:28:13.647Z,77.20
2018-05-24T15:30:41.884Z,77.20
2018-05-24T15:33:10.127Z,79.80
2018-05-24T15:35:38.351Z,79.30
2018-05-24T15:38:07.367Z,79.50
2018-05-24T15:40:35.606Z,79.10
2018-05-24T15:43:03.842Z,79.70
2018-05-24T15:45:32.068Z,81.50
2018-05-24T15:48:01.079Z,81.80
2018-05-24T15:50:29.307Z,81.70
2018-05-24T15:52:57.553Z,81.20
2018-05-24T15:55:25.782Z,80.80
2018-05-24T15:57:54.790Z,82.80
2018-05-24T16:00:23.026Z,82.70
2018-05-24T16:02:51.268Z,83.10
2018-05-24T16:05:19.498Z,80.50
2018-05-24T16:07:48.509Z,82.70
2018-05-24T16:10:16.742Z,82.70
2018-05-24T16:12:44.990Z,83.50
2018-05-24T16:15:13.218Z,80.90
2018-05-24T16:17:41.476Z,82.90
2018-05-24T16:20:10.466Z,81.50
2018-05-24T16:22:39.483Z,82.40
2018-05-24T16:25:07.729Z,82.40
2018-05-24T16:27:36.774Z,83.30
2018-05-24T16:30:04.966Z,83.20
2018-05-24T16:32:33.224Z,84.80
2018-05-24T16:35:01.461Z,85.40
2018-05-24T16:37:29.714Z,85.40
2018-05-24T16:39:58.744Z,85.50
2018-05-24T16:42:27.731Z,86.40
2018-05-24T16:44:55.979Z,86.40
2018-05-24T16:47:24.990Z,85.70
2018-05-24T16:49:53.244Z,85.70
2018-05-24T16:52:22.272Z,85.60
2018-05-24T16:54:50.498Z,85.60
2018-05-24T16:57:19.490Z,86.90
2018-05-24T16:59:48.507Z,87.30
2018-05-24T17:02:16.741Z,87.20
2018-05-24T17:04:44.974Z,87.90
2018-05-24T17:07:13.624Z,88.20
2018-05-24T17:09:42.624Z,89.90
2018-05-24T17:12:12.102Z,88.90
2018-05-24T17:14:40.327Z,88.90
2018-05-24T17:17:08.567Z,89.50
2018-05-24T17:19:37.591Z,88.30
2018-05-24T17:22:05.832Z,88.30
2018-05-24T17:24:34.843Z,84.90
2018-05-24T17:27:03.083Z,84.80
2018-05-24T17:29:31.326Z,84.70
2018-05-24T17:31:59.587Z,84.80
2018-05-24T17:34:27.811Z,83.30
2018-05-24T17:36:56.802Z,84.20
2018-05-24T17:39:25.821Z,83.70
2018-05-24T17:41:54.062Z,83.70
2018-05-24T17:44:22.303Z,84.80
2018-05-24T17:46:50.544Z,84.40
2018-05-24T17:49:18.794Z,85.10
2018-05-24T17:51:47.805Z,86.00
2018-05-24T17:54:16.072Z,85.20
2018-05-24T17:56:45.067Z,86.90
2018-05-24T17:59:13.343Z,86.90
2018-05-24T18:01:42.336Z,85.60
2018-05-24T18:04:10.586Z,85.50
2018-05-24T18:06:39.591Z,87.10
2018-05-24T18:09:08.667Z,86.80
2018-05-24T18:11:37.674Z,87.40
2018-05-24T18:14:06.683Z,87.60
2018-05-24T18:16:34.935Z,87.60
2018-05-24T18:19:03.955Z,87.00
2018-05-24T18:21:32.210Z,87.00
2018-05-24T18:24:01.234Z,86.30
2018-05-24T18:26:29.478Z,86.30
2018-05-24T18:28:57.771Z,86.70
2018-05-24T18:31:26.012Z,87.10
2018-05-24T18:33:55.035Z,86.20
2018-05-24T18:36:23.275Z,86.20
2018-05-24T18:38:51.515Z,86.60
2018-05-24T18:41:19.746Z,86.80
2018-05-24T18:43:47.990Z,86.80
2018-05-24T18:46:16.245Z,87.40
2018-05-24T18:48:44.483Z,86.10
2018-05-24T18:51:12.748Z,85.90
2018-05-24T18:53:41.225Z,85.60
2018-05-24T18:56:10.224Z,86.30
2018-05-24T18:58:38.444Z,86.10
2018-05-24T19:01:06.703Z,86.30
2018-05-24T19:03:34.923Z,86.50
2018-05-24T19:06:03.943Z,86.80
2018-05-24T19:08:32.358Z,86.80
2018-05-24T19:11:00.609Z,88.30
2018-05-24T19:13:28.896Z,88.60
2018-05-24T19:15:58.091Z,89.00
2018-05-24T19:18:26.323Z,88.90
2018-05-24T19:20:54.628Z,90.10
2018-05-24T19:23:23.582Z,90.90
2018-05-24T19:25:51.852Z,90.80
2018-05-24T19:28:20.100Z,90.50
2018-05-24T19:30:48.979Z,89.80
2018-05-24T19:33:17.265Z,89.00
2018-05-24T19:35:45.510Z,89.80
2018-05-24T19:38:14.535Z,89.90
2018-05-24T19:40:42.795Z,89.80
2018-05-24T19:43:11.029Z,88.80
2018-05-24T19:45:39.275Z,89.40
2018-05-24T19:48:08.283Z,88.70
2018-05-24T19:50:36.538Z,88.60
2018-05-24T19:53:05.546Z,89.20
2018-05-24T19:55:33.799Z,89.20
2018-05-24T19:58:02.812Z,88.50
2018-05-24T20:00:31.067Z,88.40
2018-05-24T20:03:00.133Z,89.40
2018-05-24T20:05:28.334Z,89.40
2018-05-24T20:07:57.342Z,88.30
2018-05-24T20:10:25.595Z,88.30
2018-05-24T20:12:54.600Z,90.00
2018-05-24T20:15:23.629Z,91.10
2018-05-24T20:17:51.853Z,91.10
2018-05-24T20:20:20.896Z,92.60
2018-05-24T20:22:49.144Z,92.50
2018-05-24T20:25:17.404Z,93.00
2018-05-24T20:27:46.406Z,92.40
2018-05-24T20:30:14.670Z,92.40
2018-05-24T20:32:43.009Z,92.70
2018-05-24T20:35:11.213Z,93.40
2018-05-24T20:37:40.211Z,93.90
2018-05-24T20:40:09.239Z,93.30
2018-05-24T20:42:37.495Z,93.00
2018-05-24T20:45:05.741Z,94.10
2018-05-24T20:47:34.768Z,95.80
2018-05-24T20:50:03.024Z,95.70
2018-05-24T20:52:31.274Z,95.80
2018-05-24T20:55:00.297Z,95.40
2018-05-24T20:57:28.546Z,95.40
2018-05-24T20:59:57.554Z,94.70
2018-05-24T21:02:25.819Z,94.60
2018-05-24T21:04:54.823Z,95.60
2018-05-24T21:07:23.100Z,95.60
2018-05-24T21:09:52.092Z,95.70
2018-05-24T21:12:20.351Z,95.70
2018-05-24T21:14:49.373Z,96.00
2018-05-24T21:17:17.626Z,95.60
2018-05-24T21:19:45.870Z,95.70
2018-05-24T21:22:14.120Z,95.80
2018-05-24T21:24:42.367Z,96.10
2018-05-24T21:27:10.652Z,95.90
2018-05-24T21:29:39.630Z,95.60
2018-05-24T21:32:07.895Z,95.60
2018-05-24T21:34:36.547Z,95.70
2018-05-24T21:37:04.771Z,96.30
2018-05-24T21:39:33.024Z,96.60
2018-05-24T21:42:02.061Z,95.90
2018-05-24T21:44:30.299Z,95.90
2018-05-24T21:46:58.551Z,96.70
2018-05-24T21:49:27.562Z,97.40
2018-05-24T21:51:55.814Z,97.30
2018-05-24T21:54:24.822Z,97.10
2018-05-24T21:56:53.078Z,97.10
2018-05-24T21:59:22.094Z,97.10
2018-05-24T22:01:50.363Z,97.00
2018-05-24T22:04:18.606Z,96.70
2018-05-24T22:06:46.833Z,96.70
2018-05-24T22:09:15.088Z,96.70
2018-05-24T22:11:43.335Z,96.20
2018-05-24T22:14:12.362Z,95.70
2018-05-24T22:16:40.601Z,95.60
2018-05-24T22:19:08.851Z,95.70
2018-05-24T22:21:37.099Z,95.80
2018-05-24T22:24:05.344Z,95.50
2018-05-24T22:26:33.584Z,96.40
2018-05-24T22:29:01.830Z,96.10
2018-05-24T22:31:30.110Z,96.30
2018-05-24T22:33:58.366Z,96.50
2018-05-24T22:36:26.606Z,96.80
2018-05-24T22:38:55.627Z,96.50
2018-05-24T22:41:23.873Z,96.50
2018-05-24T22:43:52.892Z,96.40
2018-05-24T22:46:21.134Z,96.40
2018-05-24T22:48:50.159Z,96.30
2018-05-24T22:51:18.402Z,96.30
2018-05-24T22:53:47.423Z,96.60
2018-05-24T22:56:15.669Z,96.50
2018-05-24T22:58:44.691Z,96.40
2018-05-24T23:01:12.939Z,96.40
2018-05-24T23:03:41.963Z,96.40
2018-05-24T23:06:10.320Z,96.40
2018-05-24T23:08:38.575Z,96.60
2018-05-24T23:11:07.661Z,96.00
2018-05-24T23:13:36.691Z,96.00
2018-05-24T23:16:04.931Z,96.00
2018-05-24T23:18:33.945Z,94.30
2018-05-24T23:21:02.225Z,94.20
2018-05-24T23:23:30.499Z,95.30
2018-05-24T23:25:58.764Z,93.80
2018-05-24T23:28:27.005Z,93.50
2018-05-24T23:30:55.267Z,92.90
2018-05-24T23:33:23.548Z,92.60
2018-05-24T23:35:51.794Z,91.70
2018-05-24T23:38:20.024Z,91.70
2018-05-24T23:40:49.031Z,91.20
2018-05-24T23:43:17.268Z,91.20
2018-05-24T23:45:45.512Z,91.40
2018-05-24T23:48:13.747Z,91.40
2018-05-24T23:50:42.756Z,91.80
2018-05-24T23:53:11.004Z,91.80
2018-05-24T23:55:40.070Z,91.60
2018-05-24T23:58:08.310Z,91.50
